Time;durP1;ratioP1;P1;durP2;ratioP2;P2;SDS_P1;SDS_P2;PMS_P1;PMS_P2;Temp;Humidity;BMP_temperature;BMP_pressure;BME280_temperature;BME280_humidity;BME280_pressure;Samples;Min_cycle;Max_cycle;Signal;HPM_P1;HPM_P2
2021/11/21 00:01:54;;;;;;;93.60;44.90;;;;;;;7.18;100.00;100945.38;5066957;28;20470;-85
2021/11/21 00:04:19;;;;;;;96.28;42.70;;;;;;;7.23;100.00;100948.47;5040805;28;20907;-84
2021/11/21 00:06:45;;;;;;;97.25;42.88;;;;;;;7.21;100.00;100955.78;5066740;28;20036;-85
2021/11/21 00:09:10;;;;;;;89.90;39.33;;;;;;;7.23;100.00;100953.81;5032628;28;20040;-85
2021/11/21 00:11:36;;;;;;;86.70;38.25;;;;;;;7.24;100.00;100942.16;5067336;28;20123;-86
2021/11/21 00:14:02;;;;;;;94.50;42.30;;;;;;;7.24;100.00;100926.13;5031467;28;20042;-86
2021/11/21 00:16:28;;;;;;;78.05;34.65;;;;;;;7.24;100.00;100908.28;5053534;28;20132;-86
2021/11/21 00:18:56;;;;;;;85.68;38.33;;;;;;;7.20;100.00;100919.41;5048217;28;20135;-84
2021/11/21 00:21:21;;;;;;;80.47;35.35;;;;;;;7.21;100.00;100926.41;5063851;28;20549;-85
2021/11/21 00:23:47;;;;;;;88.68;37.10;;;;;;;7.20;100.00;100914.91;5065441;28;20132;-84
2021/11/21 00:26:12;;;;;;;94.38;42.30;;;;;;;7.23;100.00;100914.63;5044018;28;20592;-85
2021/11/21 00:28:38;;;;;;;80.13;34.03;;;;;;;7.19;100.00;100893.66;5057273;28;20196;-85
2021/11/21 00:31:03;;;;;;;84.82;39.40;;;;;;;7.16;100.00;100891.28;5044085;28;20048;-84
2021/11/21 00:33:29;;;;;;;81.72;36.03;;;;;;;7.22;100.00;100906.72;5053757;28;20101;-84
2021/11/21 00:36:00;;;;;;;89.13;38.25;;;;;;;7.22;100.00;100893.38;5043691;28;20496;-84
2021/11/21 00:38:27;;;;;;;94.75;40.42;;;;;;;7.22;100.00;100883.56;5060480;28;20090;-83
2021/11/21 00:40:58;;;;;;;91.18;36.92;;;;;;;7.21;100.00;100883.69;5008408;28;20390;-84
2021/11/21 00:43:23;;;;;;;92.53;42.63;;;;;;;7.23;100.00;100874.56;5056106;28;20386;-83
2021/11/21 00:45:50;;;;;;;90.13;37.92;;;;;;;7.20;100.00;100876.69;5021382;28;20128;-84
2021/11/21 00:48:22;;;;;;;93.63;42.70;;;;;;;7.23;100.00;100884.41;5062414;28;20033;-84
2021/11/21 00:50:51;;;;;;;95.90;43.55;;;;;;;7.28;100.00;100890.19;5010599;28;20063;-84
2021/11/21 00:53:17;;;;;;;100.75;40.88;;;;;;;7.24;100.00;100875.41;5058445;28;20378;-83
2021/11/21 00:58:29;;;;;;;91.40;38.80;;;;;;;7.24;100.00;100881.59;5060039;28;20047;-84
2021/11/21 01:00:54;;;;;;;85.25;38.83;;;;;;;7.20;100.00;100866.84;5011545;28;20093;-83
2021/11/21 01:03:23;;;;;;;98.57;46.83;;;;;;;7.28;100.00;100867.97;5058168;28;20033;-85
2021/11/21 01:05:49;;;;;;;98.33;38.57;;;;;;;7.27;100.00;100877.81;5034792;28;20040;-84
2021/11/21 01:08:16;;;;;;;90.65;39.13;;;;;;;7.24;100.00;100860.25;5061124;28;20282;-84
2021/11/21 01:10:43;;;;;;;97.88;46.78;;;;;;;7.28;100.00;100866.16;5038417;28;20045;-84
2021/11/21 01:13:10;;;;;;;101.68;42.83;;;;;;;7.26;100.00;100862.78;5045157;28;20079;-86
2021/11/21 01:15:36;;;;;;;111.03;49.90;;;;;;;7.29;100.00;100856.31;5041480;28;20052;-85
2021/11/21 01:18:04;;;;;;;98.68;39.35;;;;;;;7.26;100.00;100852.09;5048104;28;20036;-84
2021/11/21 01:20:32;;;;;;;99.55;40.65;;;;;;;7.24;100.00;100846.06;5061263;28;20036;-85
2021/11/21 01:23:01;;;;;;;106.47;47.77;;;;;;;7.28;100.00;100849.28;5055750;28;20044;-86
2021/11/21 01:25:28;;;;;;;111.90;46.60;;;;;;;7.31;100.00;100836.50;5038107;28;20644;-84
2021/11/21 01:27:54;;;;;;;103.78;43.75;;;;;;;7.28;100.00;100846.59;5061816;28;20037;-84
2021/11/21 01:30:23;;;;;;;110.18;46.17;;;;;;;7.26;100.00;100841.44;5040188;28;20041;-85
2021/11/21 01:32:50;;;;;;;106.18;46.13;;;;;;;7.31;100.00;100841.84;5056986;28;20497;-83
2021/11/21 01:35:16;;;;;;;110.60;47.20;;;;;;;7.29;100.00;100843.81;5043004;28;20047;-84
2021/11/21 01:37:42;;;;;;;104.93;46.25;;;;;;;7.26;100.00;100836.09;5059499;28;20044;-85
2021/11/21 01:40:10;;;;;;;111.25;48.70;;;;;;;7.28;100.00;100834.13;5059118;28;20086;-84
2021/11/21 01:42:37;;;;;;;95.75;39.10;;;;;;;7.27;100.00;100827.09;5058305;28;20508;-84
2021/11/21 01:45:03;;;;;;;101.00;44.10;;;;;;;7.27;100.00;100827.09;5035520;28;20166;-84
2021/11/21 01:47:30;;;;;;;100.57;41.22;;;;;;;7.29;100.00;100819.78;5039834;28;20131;-84
2021/11/21 01:49:55;;;;;;;96.28;42.17;;;;;;;7.26;100.00;100824.56;5041411;28;20439;-84
2021/11/21 01:52:20;;;;;;;89.47;39.53;;;;;;;7.23;100.00;100817.69;5058111;28;20089;-85
2021/11/21 01:54:46;;;;;;;94.20;41.58;;;;;;;7.25;100.00;100823.75;5062048;28;20086;-84
2021/11/21 01:57:12;;;;;;;93.13;42.25;;;;;;;7.27;100.00;100826.25;5046293;28;20032;-85
2021/11/21 01:59:39;;;;;;;84.82;34.67;;;;;;;7.20;100.00;100823.31;5061346;28;20504;-84
2021/11/21 02:02:05;;;;;;;96.25;39.03;;;;;;;7.20;100.00;100813.47;5063510;28;20048;-85
2021/11/21 02:04:30;;;;;;;85.65;37.97;;;;;;;7.20;100.00;100815.31;5049531;28;20044;-85
2021/11/21 02:06:55;;;;;;;88.97;35.10;;;;;;;7.20;100.00;100817.97;5059121;28;20101;-85
2021/11/21 02:09:21;;;;;;;80.63;33.40;;;;;;;7.17;100.00;100818.25;5067006;28;20231;-85
2021/11/21 02:11:47;;;;;;;81.40;34.08;;;;;;;7.16;100.00;100820.09;5050385;28;20045;-85
2021/11/21 02:14:12;;;;;;;83.38;37.03;;;;;;;7.19;100.00;100818.94;5048306;28;20040;-85
2021/11/21 02:16:38;;;;;;;86.50;38.28;;;;;;;7.18;100.00;100811.94;5049235;28;20048;-84
2021/11/21 02:19:04;;;;;;;81.28;35.72;;;;;;;7.17;100.00;100805.75;5066639;28;20573;-84
2021/11/21 02:21:30;;;;;;;90.90;41.20;;;;;;;7.19;100.00;100801.13;5065588;28;20052;-84
2021/11/21 02:23:55;;;;;;;88.55;35.92;;;;;;;7.18;100.00;100798.59;5049172;28;20535;-84
2021/11/21 02:26:21;;;;;;;88.03;38.30;;;;;;;7.16;100.00;100797.88;5032971;28;20140;-84
2021/11/21 02:28:49;;;;;;;78.90;31.65;;;;;;;7.14;100.00;100789.19;5065977;28;20139;-84
2021/11/21 02:31:15;;;;;;;83.00;37.42;;;;;;;7.17;100.00;100781.72;5049746;28;20396;-84
2021/11/21 02:33:42;;;;;;;92.97;42.70;;;;;;;7.19;100.00;100776.25;5066774;28;20040;-84
2021/11/21 02:36:08;;;;;;;88.43;37.30;;;;;;;7.20;100.00;100777.94;5049855;28;20044;-86
2021/11/21 02:38:35;;;;;;;91.97;40.35;;;;;;;7.21;100.00;100768.94;5067761;28;20046;-84
2021/11/21 02:41:04;;;;;;;88.75;35.83;;;;;;;7.18;100.00;100758.56;5033749;28;20186;-84
2021/11/21 02:43:30;;;;;;;91.28;40.35;;;;;;;7.18;100.00;100753.22;5064202;28;20416;-83
2021/11/21 02:45:56;;;;;;;93.65;41.60;;;;;;;7.17;100.00;100749.72;5052531;28;20040;-84
2021/11/21 02:48:30;;;;;;;94.95;39.97;;;;;;;7.17;100.00;100749.72;5052531;28;20043;-84
2021/11/21 02:50:57;;;;;;;97.40;41.42;;;;;;;7.17;100.00;100743.53;5036264;28;20035;-85
2021/11/21 02:53:26;;;;;;;84.85;36.55;;;;;;;7.14;100.00;100741.16;5053047;28;20131;-84
2021/11/21 02:55:55;;;;;;;83.82;38.78;;;;;;;7.19;100.00;100733.53;5065104;28;20044;-85
2021/11/21 02:58:21;;;;;;;93.40;39.38;;;;;;;7.21;100.00;100726.22;5069531;28;20056;-85
2021/11/21 03:00:46;;;;;;;93.97;40.40;;;;;;;7.18;100.00;100722.03;5059259;28;20134;-85
2021/11/21 03:03:13;;;;;;;90.97;39.67;;;;;;;7.19;100.00;100717.53;5049517;28;20032;-84
2021/11/21 03:05:39;;;;;;;95.72;40.70;;;;;;;7.18;100.00;100719.34;5061950;28;20040;-85
2021/11/21 03:08:05;;;;;;;96.25;41.22;;;;;;;7.19;100.00;100698.84;5053039;28;20044;-83
2021/11/21 03:10:31;;;;;;;95.38;38.13;;;;;;;7.19;100.00;100701.50;5070973;28;20040;-84
2021/11/21 03:12:58;;;;;;;109.57;42.97;;;;;;;7.19;100.00;100691.69;5048461;28;20040;-85
2021/11/21 03:15:25;;;;;;;104.82;43.05;;;;;;;7.23;100.00;100697.59;5051797;28;20049;-85
2021/11/21 03:17:51;;;;;;;99.78;38.50;;;;;;;7.20;100.00;100698.72;5052818;28;20060;-84
2021/11/21 03:20:24;;;;;;;111.00;45.40;;;;;;;7.20;100.00;100698.72;5068525;28;20492;-85
2021/11/21 03:22:50;;;;;;;102.25;37.97;;;;;;;7.17;100.00;100698.16;5034823;28;20123;-84
2021/11/21 03:25:16;;;;;;;118.63;46.22;;;;;;;7.21;100.00;100702.22;5056580;28;20111;-85
2021/11/21 03:27:42;;;;;;;114.68;40.88;;;;;;;7.20;100.00;100689.88;5068373;28;20477;-85
2021/11/21 03:30:13;;;;;;;107.97;44.72;;;;;;;7.23;100.00;100692.25;5070072;28;20102;-84
2021/11/21 03:32:39;;;;;;;106.30;39.67;;;;;;;7.22;100.00;100701.22;5048905;28;20040;-85
2021/11/21 03:35:05;;;;;;;109.50;38.58;;;;;;;7.17;100.00;100693.66;5062168;28;20051;-86
2021/11/21 03:37:31;;;;;;;109.38;43.95;;;;;;;7.18;100.00;100692.66;5051752;28;20032;-84
2021/11/21 03:39:56;;;;;;;125.82;49.95;;;;;;;7.21;100.00;100683.53;5051198;28;20044;-84
2021/11/21 03:42:22;;;;;;;125.80;46.97;;;;;;;7.24;100.00;100685.91;5047536;28;20049;-84
2021/11/21 03:44:48;;;;;;;130.15;54.92;;;;;;;7.25;100.00;100687.59;5060075;28;20123;-84
2021/11/21 03:47:14;;;;;;;122.75;51.30;;;;;;;7.23;100.00;100687.75;5060902;28;20481;-84
2021/11/21 03:49:39;;;;;;;114.32;45.70;;;;;;;7.23;100.00;100698.41;5054449;28;20032;-84
2021/11/21 03:52:05;;;;;;;106.63;41.67;;;;;;;7.22;100.00;100674.53;5052005;28;20040;-85
2021/11/21 03:54:31;;;;;;;105.95;46.13;;;;;;;7.22;100.00;100682.53;5050762;28;20044;-84
2021/11/21 03:56:56;;;;;;;111.30;39.92;;;;;;;7.22;100.00;100678.06;5069346;28;20044;-85
2021/11/21 03:59:21;;;;;;;98.22;37.38;;;;;;;7.23;100.00;100678.91;5068726;28;20170;-85
2021/11/21 04:01:48;;;;;;;101.03;40.42;;;;;;;7.22;100.00;100670.06;5052613;28;20056;-84
2021/11/21 04:04:14;;;;;;;101.97;38.47;;;;;;;7.24;100.00;100662.72;5069688;28;20044;-85
2021/11/21 04:06:40;;;;;;;102.85;40.83;;;;;;;7.23;100.00;100678.91;5067639;28;20750;-84
2021/11/21 04:09:06;;;;;;;97.13;37.90;;;;;;;7.21;100.00;100657.69;5070236;28;20131;-84
2021/11/21 04:11:31;;;;;;;97.40;38.75;;;;;;;7.19;100.00;100664.16;5050662;28;20080;-84
2021/11/21 04:13:58;;;;;;;100.95;41.95;;;;;;;7.22;100.00;100647.84;5049017;28;20097;-84
2021/11/21 04:16:24;;;;;;;106.05;42.42;;;;;;;7.23;100.00;100655.72;5057459;28;20582;-84
2021/11/21 04:18:49;;;;;;;101.78;40.83;;;;;;;7.24;100.00;100656.53;5039778;28;20505;-84
2021/11/21 04:21:16;;;;;;;108.38;46.53;;;;;;;7.28;100.00;100651.75;5060147;28;20044;-85
2021/11/21 04:23:41;;;;;;;114.63;43.35;;;;;;;7.28;100.00;100644.59;5060180;28;20040;-85
2021/11/21 04:26:07;;;;;;;109.50;40.17;;;;;;;7.28;100.00;100651.75;5042236;28;20055;-85
2021/11/21 04:28:32;;;;;;;114.03;40.53;;;;;;;7.28;100.00;100641.06;5043418;28;20044;-84
2021/11/21 04:30:58;;;;;;;111.78;40.55;;;;;;;7.25;100.00;100644.91;5046566;28;20041;-84
2021/11/21 04:33:24;;;;;;;118.15;47.35;;;;;;;7.28;100.00;100631.25;5058659;28;20706;-84
2021/11/21 04:35:50;;;;;;;115.60;41.85;;;;;;;7.27;100.00;100640.25;5057335;28;20084;-85
2021/11/21 04:38:17;;;;;;;132.23;47.47;;;;;;;7.28;100.00;100630.41;5044375;28;20037;-85
2021/11/21 04:40:44;;;;;;;124.72;47.88;;;;;;;7.29;100.00;100637.44;5059769;28;20131;-84
2021/11/21 04:43:11;;;;;;;118.97;40.42;;;;;;;7.25;100.00;100628.88;5059825;28;20052;-84
2021/11/21 04:45:37;;;;;;;118.65;42.35;;;;;;;7.23;100.00;100622.84;5026769;28;20075;-84
2021/11/21 04:48:03;;;;;;;129.70;49.88;;;;;;;7.27;100.00;100629.56;5052726;28;20441;-84
2021/11/21 04:50:29;;;;;;;121.72;45.42;;;;;;;7.25;100.00;100626.22;5059597;28;20044;-84
2021/11/21 04:52:55;;;;;;;123.88;48.03;;;;;;;7.29;100.00;100619.59;5058496;28;20036;-85
2021/11/21 04:55:20;;;;;;;129.43;49.17;;;;;;;7.33;100.00;100622.78;5045495;28;20060;-85
2021/11/21 04:57:46;;;;;;;126.28;46.38;;;;;;;7.27;100.00;100624.22;5057090;28;20443;-85
2021/11/21 05:00:16;;;;;;;122.53;43.75;;;;;;;7.29;100.00;100622.25;5048123;28;20059;-85
2021/11/21 05:02:45;;;;;;;116.72;43.80;;;;;;;7.29;100.00;100622.25;5044809;28;20139;-84
2021/11/21 05:05:12;;;;;;;122.75;45.33;;;;;;;7.33;100.00;100628.97;5060260;28;20526;-84
2021/11/21 05:07:38;;;;;;;125.03;47.22;;;;;;;7.34;100.00;100625.34;5062208;28;20050;-84
2021/11/21 05:10:07;;;;;;;123.43;43.92;;;;;;;7.33;100.00;100618.28;5061773;28;20044;-83
2021/11/21 05:12:33;;;;;;;111.10;43.35;;;;;;;7.34;100.00;100625.34;5056870;28;20049;-85
2021/11/21 05:15:00;;;;;;;104.60;37.88;;;;;;;7.34;100.00;100624.50;5059770;28;20062;-84
2021/11/21 05:17:26;;;;;;;92.30;33.22;;;;;;;7.29;100.00;100624.94;5060754;28;20041;-85
2021/11/21 05:19:52;;;;;;;98.93;36.53;;;;;;;7.31;100.00;100624.75;5057985;28;20040;-84
2021/11/21 05:22:18;;;;;;;82.35;31.38;;;;;;;7.31;100.00;100632.78;5012326;28;20105;-84
2021/11/21 05:24:43;;;;;;;94.93;38.10;;;;;;;7.31;100.00;100636.31;5045507;28;20493;-83
2021/11/21 05:27:09;;;;;;;88.25;35.90;;;;;;;7.32;100.00;100637.13;5060879;28;20102;-84
2021/11/21 05:29:36;;;;;;;92.40;34.55;;;;;;;7.30;100.00;100639.09;5045096;28;20084;-85
2021/11/21 05:32:02;;;;;;;92.28;35.35;;;;;;;7.32;100.00;100626.47;5047537;28;20033;-83
2021/11/21 05:34:28;;;;;;;90.65;34.05;;;;;;;7.33;100.00;100628.97;5060363;28;20048;-82
2021/11/21 05:36:53;;;;;;;78.03;29.27;;;;;;;7.28;100.00;100619.72;5060189;28;20548;-84
2021/11/21 05:39:19;;;;;;;84.68;31.05;;;;;;;7.29;100.00;100622.25;5043546;28;20044;-86
2021/11/21 05:41:44;;;;;;;83.75;34.75;;;;;;;7.32;100.00;100621.13;5038293;28;20493;-85
2021/11/21 05:44:10;;;;;;;83.82;32.70;;;;;;;7.29;100.00;100622.25;5010989;28;20076;-84
2021/11/21 05:46:35;;;;;;;80.53;31.50;;;;;;;7.30;100.00;100621.25;5060426;28;20519;-85
2021/11/21 05:49:01;;;;;;;76.85;28.63;;;;;;;7.30;100.00;100621.25;5060874;28;20032;-83
2021/11/21 05:51:26;;;;;;;77.07;27.90;;;;;;;7.30;100.00;100623.09;5048687;28;20041;-83
2021/11/21 05:53:52;;;;;;;81.50;29.00;;;;;;;7.32;100.00;100621.97;5032835;28;20098;-85
2021/11/21 05:56:18;;;;;;;85.00;31.85;;;;;;;7.34;100.00;100619.16;5045598;28;20074;-85
2021/11/21 05:58:44;;;;;;;78.07;28.70;;;;;;;7.31;100.00;100625.63;5052499;28;20117;-83
2021/11/21 06:01:10;;;;;;;84.00;29.05;;;;;;;7.33;100.00;100617.47;5072869;28;20036;-85
2021/11/21 06:03:35;;;;;;;91.47;36.28;;;;;;;7.36;100.00;100612.66;5031739;28;20179;-84
2021/11/21 06:06:00;;;;;;;83.82;31.63;;;;;;;7.37;100.00;100614.34;5022847;28;20539;-83
2021/11/21 06:08:26;;;;;;;83.97;31.15;;;;;;;7.40;100.00;100615.91;5035828;28;20047;-84
2021/11/21 06:10:51;;;;;;;85.57;30.00;;;;;;;7.39;100.00;100616.88;5017351;28;20563;-84
2021/11/21 06:13:17;;;;;;;74.97;28.75;;;;;;;7.38;100.00;100615.19;5040946;28;20043;-84
2021/11/21 06:15:44;;;;;;;80.78;33.05;;;;;;;7.42;100.00;100617.44;5038167;28;20467;-85
2021/11/21 06:18:09;;;;;;;79.50;32.95;;;;;;;7.46;100.00;100618.81;5057464;28;20486;-84
2021/11/21 06:20:35;;;;;;;77.70;28.48;;;;;;;7.48;100.00;100616.00;5034344;28;20051;-84
2021/11/21 06:23:02;;;;;;;81.72;30.25;;;;;;;7.49;100.00;100624.84;5071825;28;20036;-84
2021/11/21 06:25:27;;;;;;;83.45;31.30;;;;;;;7.51;100.00;100626.38;5068243;28;20067;-85
2021/11/21 06:27:52;;;;;;;75.18;29.73;;;;;;;7.51;100.00;100615.69;5066357;28;20037;-85
2021/11/21 06:30:18;;;;;;;78.15;30.02;;;;;;;7.49;100.00;100616.84;5065425;28;20505;-84
2021/11/21 06:32:43;;;;;;;83.00;31.00;;;;;;;7.50;100.00;100618.50;5067305;28;20041;-84
2021/11/21 06:35:10;;;;;;;79.50;33.78;;;;;;;7.52;100.00;100620.03;5052128;28;20028;-84
2021/11/21 06:37:36;;;;;;;85.82;34.33;;;;;;;7.53;100.00;100623.53;5033145;28;20127;-86
2021/11/21 06:40:03;;;;;;;82.13;30.45;;;;;;;7.52;100.00;100616.53;5053339;28;20135;-84
2021/11/21 06:42:28;;;;;;;79.00;29.52;;;;;;;7.51;100.00;100612.16;5048322;28;20107;-84
2021/11/21 06:44:54;;;;;;;90.72;36.67;;;;;;;7.56;100.00;100620.56;5050639;28;20053;-84
2021/11/21 06:47:22;;;;;;;91.50;37.15;;;;;;;7.57;100.00;100616.94;5049068;28;20052;-85
2021/11/21 06:49:47;;;;;;;85.15;31.63;;;;;;;7.52;100.00;100613.88;5051466;28;20143;-83
2021/11/21 06:52:14;;;;;;;86.53;31.98;;;;;;;7.52;100.00;100600.50;5055243;28;20575;-84
2021/11/21 06:54:39;;;;;;;72.45;25.92;;;;;;;7.50;100.00;100616.66;5068453;28;20040;-84
2021/11/21 06:57:05;;;;;;;76.13;28.63;;;;;;;7.49;100.00;100611.50;5063859;28;20044;-85
2021/11/21 06:59:31;;;;;;;82.55;31.15;;;;;;;7.51;100.00;100612.16;5050189;28;20396;-83
2021/11/21 07:01:56;;;;;;;78.63;29.52;;;;;;;7.54;100.00;100614.53;5050760;28;20047;-84
2021/11/21 07:04:21;;;;;;;76.10;28.40;;;;;;;7.52;100.00;100611.19;5026528;28;20060;-83
2021/11/21 07:06:47;;;;;;;82.47;32.15;;;;;;;7.51;100.00;100621.03;5053050;28;20041;-83
2021/11/21 07:09:14;;;;;;;83.43;31.58;;;;;;;7.52;100.00;100616.53;5054655;28;20103;-84
2021/11/21 07:11:41;;;;;;;83.85;29.23;;;;;;;7.51;100.00;100621.03;5073374;28;20035;-84
2021/11/21 07:14:10;;;;;;;82.40;30.98;;;;;;;7.52;100.00;100621.88;5058802;28;20049;-84
2021/11/21 07:16:36;;;;;;;79.60;32.55;;;;;;;7.51;100.00;100621.03;5071945;28;20181;-83
2021/11/21 07:19:01;;;;;;;78.85;28.65;;;;;;;7.52;100.00;100627.22;5061696;28;20911;-84
2021/11/21 07:21:27;;;;;;;84.03;29.58;;;;;;;7.51;100.00;100626.38;5039940;28;20440;-84
2021/11/21 07:23:52;;;;;;;82.60;31.48;;;;;;;7.52;100.00;100627.22;5043230;28;20051;-83
2021/11/21 07:26:18;;;;;;;77.32;30.40;;;;;;;7.52;100.00;100632.56;5048957;28;20036;-84
2021/11/21 07:28:43;;;;;;;78.65;30.23;;;;;;;7.53;100.00;100640.41;5048632;28;20079;-85
2021/11/21 07:31:10;;;;;;;87.72;32.05;;;;;;;7.52;100.00;100627.22;5066644;28;20037;-84
2021/11/21 07:33:36;;;;;;;98.35;33.03;;;;;;;7.54;100.00;100641.25;5047337;28;20435;-84
2021/11/21 07:36:01;;;;;;;89.78;32.42;;;;;;;7.54;100.00;100644.78;5051740;28;20049;-84
2021/11/21 07:38:26;;;;;;;84.03;31.83;;;;;;;7.54;100.00;100643.91;5045909;28;20131;-85
2021/11/21 07:40:52;;;;;;;76.90;29.45;;;;;;;7.52;100.00;100643.22;5063783;28;20217;-84
2021/11/21 07:43:21;;;;;;;87.60;31.42;;;;;;;7.51;100.00;100642.41;5044262;28;20066;-84
2021/11/21 07:45:48;;;;;;;94.97;34.38;;;;;;;7.51;100.00;100636.19;5066084;28;20032;-84
2021/11/21 07:48:13;;;;;;;92.63;34.42;;;;;;;7.54;100.00;100644.78;5030055;28;20677;-84
2021/11/21 07:50:38;;;;;;;108.13;37.55;;;;;;;7.58;100.00;100640.81;5041075;28;20048;-84
2021/11/21 07:53:04;;;;;;;90.32;33.75;;;;;;;7.57;100.00;100636.47;5042309;28;20044;-85
2021/11/21 07:55:29;;;;;;;91.03;32.92;;;;;;;7.60;100.00;100646.00;5067906;28;20126;-85
2021/11/21 07:57:55;;;;;;;94.28;33.30;;;;;;;7.60;100.00;100654.03;5032582;28;20056;-86
2021/11/21 08:00:20;;;;;;;97.32;34.03;;;;;;;7.62;100.00;100657.38;5061601;28;20037;-85
2021/11/21 08:02:46;;;;;;;86.47;31.77;;;;;;;7.61;100.00;100655.69;5043285;28;20166;-84
2021/11/21 08:05:12;;;;;;;87.00;31.55;;;;;;;7.61;100.00;100659.19;5061785;28;20033;-84
2021/11/21 08:07:38;;;;;;;94.60;31.23;;;;;;;7.59;100.00;100652.31;5057409;28;20139;-86
2021/11/21 08:10:05;;;;;;;84.05;28.83;;;;;;;7.59;100.00;100661.16;5041481;28;20608;-84
2021/11/21 08:12:33;;;;;;;89.63;32.13;;;;;;;7.62;100.00;100662.69;5056655;28;20040;-85
2021/11/21 08:14:58;;;;;;;89.28;31.08;;;;;;;7.63;100.00;100670.59;5045383;28;20367;-85
2021/11/21 08:17:24;;;;;;;90.03;33.65;;;;;;;7.66;100.00;100672.97;5065870;28;20045;-86
2021/11/21 08:19:50;;;;;;;95.63;35.17;;;;;;;7.70;100.00;100673.50;5062711;28;20142;-86
2021/11/21 08:22:16;;;;;;;98.80;34.97;;;;;;;7.74;100.00;100679.38;5039296;28;20036;-86
2021/11/21 08:24:41;;;;;;;88.55;30.48;;;;;;;7.72;100.00;100676.88;5044568;28;20045;-86
2021/11/21 08:27:07;;;;;;;97.05;34.15;;;;;;;7.74;100.00;100674.03;5033636;28;20519;-86
2021/11/21 08:29:33;;;;;;;94.70;36.17;;;;;;;7.76;100.00;100683.56;5053592;28;20056;-85
2021/11/21 08:31:59;;;;;;;83.10;30.17;;;;;;;7.79;100.00;100687.78;5059726;28;20525;-85
2021/11/21 08:34:25;;;;;;;78.18;29.38;;;;;;;7.79;100.00;100683.28;5046431;28;20037;-85
2021/11/21 08:36:52;;;;;;;84.60;30.60;;;;;;;7.82;100.00;100685.66;5059226;28;20059;-86
2021/11/21 08:39:21;;;;;;;77.00;28.52;;;;;;;7.85;100.00;100690.72;5018254;28;20056;-87
2021/11/21 08:41:46;;;;;;;;;;;;;;;7.86;100.00;100689.72;5052390;28;20040;-85
2021/11/21 08:44:12;;;;;;;71.63;26.38;;;;;;;7.81;100.00;100686.66;5053376;28;20409;-86
2021/11/21 08:46:37;;;;;;;77.07;28.30;;;;;;;7.81;100.00;100693.84;5063752;28;20036;-85
2021/11/21 08:49:03;;;;;;;70.18;26.95;;;;;;;7.84;100.00;100691.69;5067741;28;20040;-85
2021/11/21 08:51:28;;;;;;;68.80;26.25;;;;;;;7.86;100.00;100684.38;5058075;28;20060;-86
2021/11/21 08:53:53;;;;;;;63.13;24.40;;;;;;;7.89;100.00;100689.44;5057084;28;20056;-85
2021/11/21 08:56:20;;;;;;;55.72;21.25;;;;;;;7.90;100.00;100696.44;5012925;28;20295;-86
2021/11/21 08:58:46;;;;;;;54.45;22.08;;;;;;;7.93;100.00;100697.13;5045975;28;20287;-84
2021/11/21 09:01:11;;;;;;;53.42;21.17;;;;;;;7.98;100.00;100698.38;5046420;28;20032;-85
2021/11/21 09:03:38;;;;;;;54.15;20.52;;;;;;;7.99;100.00;100699.22;5060767;28;20064;-85
2021/11/21 09:06:04;;;;;;;51.97;21.65;;;;;;;8.03;100.00;100695.25;5080205;28;20041;-86
2021/11/21 09:08:30;;;;;;;53.72;20.33;;;;;;;8.05;100.00;100694.09;5044603;28;20037;-84
2021/11/21 09:10:56;;;;;;;46.30;19.08;;;;;;;8.07;100.00;100696.63;5047297;28;20037;-87
2021/11/21 09:13:21;;;;;;;46.15;17.38;;;;;;;8.08;100.00;100695.63;5045924;28;20127;-85
2021/11/21 09:15:47;;;;;;;48.83;20.33;;;;;;;8.11;100.00;100693.53;5042252;28;20052;-86
2021/11/21 09:18:13;;;;;;;40.75;15.57;;;;;;;8.12;100.00;100699.72;5048046;28;20047;-86
2021/11/21 09:20:40;;;;;;;34.83;14.88;;;;;;;8.13;100.00;100701.38;5027443;28;20421;-86
2021/11/21 09:23:11;;;;;;;27.95;11.77;;;;;;;8.14;100.00;100703.03;5057584;28;20124;-86
2021/11/21 09:25:38;;;;;;;27.38;11.02;;;;;;;8.10;100.00;100696.34;5062760;28;20033;-84
2021/11/21 09:28:04;;;;;;;22.58;9.52;;;;;;;8.13;100.00;100696.03;5066398;28;20257;-85
2021/11/21 09:30:30;;;;;;;20.05;10.05;;;;;;;8.10;100.00;100699.84;5063210;28;20040;-86
2021/11/21 09:32:55;;;;;;;17.73;7.45;;;;;;;8.12;100.00;100705.88;5067341;28;20036;-85
2021/11/21 09:35:22;;;;;;;18.50;6.55;;;;;;;8.15;100.00;100707.41;5050468;28;20536;-85
2021/11/21 09:37:48;;;;;;;20.55;7.53;;;;;;;8.18;100.00;100703.59;5057577;28;20064;-85
2021/11/21 09:40:14;;;;;;;17.85;5.82;;;;;;;8.19;100.00;100700.75;5058070;28;20400;-85
2021/11/21 09:42:41;;;;;;;14.35;5.53;;;;;;;8.16;100.00;100703.75;5061800;28;20037;-85
2021/11/21 09:45:09;;;;;;;16.20;5.60;;;;;;;8.15;100.00;100699.41;5041090;28;20040;-86
2021/11/21 09:47:34;;;;;;;15.32;7.05;;;;;;;8.21;100.00;100701.47;5047915;28;20045;-85
2021/11/21 09:50:07;;;;;;;13.15;4.65;;;;;;;8.15;100.00;100702.06;5048483;28;20082;-86
2021/11/21 09:52:32;;;;;;;11.63;4.68;;;;;;;8.15;100.00;100704.75;5066198;28;20033;-84
2021/11/21 09:54:58;;;;;;;12.52;4.32;;;;;;;8.11;100.00;100706.88;5051774;28;20043;-85
2021/11/21 09:57:24;;;;;;;12.98;3.28;;;;;;;8.15;100.00;100704.75;5044678;28;20123;-86
2021/11/21 09:59:53;;;;;;;9.95;3.45;;;;;;;8.12;100.00;100700.53;5071179;28;20037;-86
2021/11/21 10:02:40;;;;;;;13.20;3.58;;;;;;;8.17;100.00;100715.28;5076880;28;20067;-85
2021/11/21 10:05:17;;;;;;;14.73;3.70;;;;;;;8.18;100.00;100711.63;5037072;28;20400;-87
2021/11/21 10:07:43;;;;;;;11.10;3.22;;;;;;;8.14;100.00;100714.59;5048460;28;20658;-85
2021/11/21 10:10:12;;;;;;;10.00;3.25;;;;;;;8.13;100.00;100709.41;5069667;28;20048;-86
2021/11/21 10:12:41;;;;;;;10.73;2.95;;;;;;;8.16;100.00;100705.59;5067027;28;20043;-85
2021/11/21 10:15:08;;;;;;;11.82;2.75;;;;;;;8.15;100.00;100704.75;5033224;28;20067;-85
2021/11/21 10:17:35;;;;;;;14.40;2.90;;;;;;;8.11;100.00;100698.88;5051696;28;20182;-85
2021/11/21 10:20:06;;;;;;;10.23;3.35;;;;;;;8.14;100.00;100698.56;5064254;28;20064;-85
2021/11/21 10:22:59;;;;;;;10.85;2.65;;;;;;;8.14;100.00;100703.91;5042762;28;20058;-85
2021/11/21 10:25:39;;;;;;;12.20;2.55;;;;;;;8.12;100.00;100700.53;5061499;28;20053;-86
2021/11/21 10:28:24;;;;;;;14.65;2.90;;;;;;;8.13;100.00;100709.41;5062147;28;20394;-84
2021/11/21 10:31:12;;;;;;;17.25;3.05;;;;;;;8.14;100.00;100709.25;5043285;28;20060;-87
2021/11/21 10:33:44;;;;;;;13.70;2.53;;;;;;;8.11;100.00;100711.38;5048666;28;20051;-86
2021/11/21 10:36:20;;;;;;;14.70;2.83;;;;;;;8.12;100.00;100705.06;5048835;28;20051;-86
2021/11/21 10:39:00;;;;;;;13.32;2.60;;;;;;;8.15;100.00;100702.06;5052265;28;20051;-86
2021/11/21 10:41:33;;;;;;;13.43;2.35;;;;;;;8.16;100.00;100711.75;5049941;28;20120;-86
2021/11/21 10:44:05;;;;;;;10.10;2.25;;;;;;;8.17;100.00;100713.47;5048589;28;20106;-85
2021/11/21 10:46:43;;;;;;;11.23;2.10;;;;;;;8.17;100.00;100710.78;5058831;28;20376;-87
2021/11/21 10:49:28;;;;;;;12.82;2.63;;;;;;;8.16;100.00;100703.75;5049296;28;20551;-88
2021/11/21 10:52:02;;;;;;;14.27;2.85;;;;;;;8.20;100.00;100709.63;5041392;28;20056;-85
2021/11/21 10:54:38;;;;;;;10.07;2.90;;;;;;;8.18;100.00;100700.94;5054024;28;20131;-84
2021/11/21 10:57:09;;;;;;;13.40;2.58;;;;;;;8.10;100.00;100707.84;5045195;28;20106;-85
2021/11/21 11:00:04;;;;;;;14.75;2.42;;;;;;;8.10;100.00;100704.34;5055286;28;20037;-86
2021/11/21 11:02:32;;;;;;;14.27;2.92;;;;;;;8.08;100.00;100704.50;5052703;28;20423;-86
2021/11/21 11:05:21;;;;;;;12.85;2.75;;;;;;;8.08;100.00;100700.97;5062753;28;20043;-85
2021/11/21 11:07:46;;;;;;;11.07;2.25;;;;;;;8.05;100.00;100691.44;5063622;28;21035;-86
2021/11/21 11:10:16;;;;;;;9.15;2.33;;;;;;;8.09;100.00;100700.84;5058807;28;20048;-87
2021/11/21 11:12:49;;;;;;;11.23;2.28;;;;;;;8.11;100.00;100698.88;5057750;28;20443;-85